createdAt,value
2019-02-25T00:01:56.430Z,25.37
2019-02-25T00:04:25.352Z,23.53
2019-02-25T00:06:54.035Z,24.37
2019-02-25T00:09:23.054Z,24.23
2019-02-25T00:11:51.706Z,24.97
2019-02-25T00:14:20.347Z,24.10
2019-02-25T00:16:48.994Z,24.07
2019-02-25T00:19:17.816Z,23.40
2019-02-25T00:21:46.667Z,23.73
2019-02-25T00:24:16.042Z,23.30
2019-02-25T00:26:44.710Z,23.47
2019-02-25T00:29:13.339Z,24.00
2019-02-25T00:31:42.354Z,23.00
2019-02-25T00:34:11.001Z,22.43
2019-02-25T00:36:39.648Z,22.90
2019-02-25T00:39:08.606Z,21.87
2019-02-25T00:41:37.686Z,23.33
2019-02-25T00:44:06.903Z,22.93
2019-02-25T00:46:35.578Z,23.13
2019-02-25T00:49:04.430Z,22.03
2019-02-25T00:51:33.612Z,23.40
2019-02-25T00:54:02.149Z,23.00
2019-02-25T00:56:31.463Z,22.03
2019-02-25T00:59:00.106Z,23.00
2019-02-25T01:01:28.751Z,23.53
2019-02-25T01:03:57.588Z,21.03
2019-02-25T01:06:26.223Z,23.60
2019-02-25T01:08:55.431Z,23.43
2019-02-25T01:11:24.090Z,24.00
2019-02-25T01:13:52.722Z,24.17
2019-02-25T01:16:21.739Z,23.77
2019-02-25T01:18:50.387Z,23.77
2019-02-25T01:21:19.310Z,22.30
2019-02-25T01:23:48.947Z,23.23
2019-02-25T01:26:17.894Z,21.47
2019-02-25T01:28:46.892Z,21.90
2019-02-25T01:31:15.539Z,21.90
2019-02-25T01:33:44.555Z,22.90
2019-02-25T01:36:13.210Z,22.63
2019-02-25T01:38:41.858Z,23.67
2019-02-25T01:41:10.663Z,22.17
2019-02-25T01:43:39.095Z,21.47
2019-02-25T01:46:08.322Z,22.00
2019-02-25T01:48:37.005Z,21.30
2019-02-25T01:51:05.816Z,22.57
2019-02-25T01:53:34.656Z,22.60
2019-02-25T01:56:03.296Z,21.80
2019-02-25T01:58:32.290Z,20.90
2019-02-25T02:01:01.338Z,21.13
2019-02-25T02:03:30.176Z,21.80
2019-02-25T02:05:58.819Z,21.70
2019-02-25T02:08:27.832Z,21.40
2019-02-25T02:10:56.494Z,19.93
2019-02-25T02:13:25.306Z,21.27
2019-02-25T02:15:54.228Z,21.83
2019-02-25T02:18:22.983Z,19.70
2019-02-25T02:20:51.907Z,20.17
2019-02-25T02:23:20.657Z,21.10
2019-02-25T02:25:49.479Z,20.30
2019-02-25T02:28:18.420Z,20.90
2019-02-25T02:30:47.178Z,20.10
2019-02-25T02:33:16.007Z,20.93
2019-02-25T02:35:44.810Z,20.07
2019-02-25T02:38:13.459Z,20.67
2019-02-25T02:40:42.090Z,21.77
2019-02-25T02:43:10.750Z,21.30
2019-02-25T02:45:44.543Z,21.10
2019-02-25T02:48:14.842Z,22.50
2019-02-25T02:50:43.887Z,20.67
2019-02-25T02:53:12.920Z,20.60
2019-02-25T02:55:41.577Z,20.17
2019-02-25T02:58:10.208Z,20.20
2019-02-25T03:00:39.223Z,20.50
2019-02-25T03:03:08.084Z,20.57
2019-02-25T03:05:37.182Z,19.70
2019-02-25T03:08:06.029Z,19.50
2019-02-25T03:10:34.810Z,21.63
2019-02-25T03:13:03.640Z,21.17
2019-02-25T03:15:31.961Z,21.43
2019-02-25T03:18:00.690Z,20.13
2019-02-25T03:20:29.595Z,20.83
2019-02-25T03:22:58.908Z,20.43
2019-02-25T03:25:27.567Z,20.27
2019-02-25T03:27:56.206Z,19.93
2019-02-25T03:30:24.859Z,21.33
2019-02-25T03:32:54.044Z,20.93
2019-02-25T03:35:22.715Z,22.07
2019-02-25T03:37:51.342Z,23.13
2019-02-25T03:40:20.661Z,20.50
2019-02-25T03:42:49.723Z,20.67
2019-02-25T03:45:18.905Z,19.97
2019-02-25T03:47:48.419Z,21.30
2019-02-25T03:50:17.464Z,20.50
2019-02-25T03:52:46.493Z,20.00
2019-02-25T03:55:15.804Z,20.03
2019-02-25T03:57:44.557Z,20.73
2019-02-25T04:00:22.747Z,20.37
2019-02-25T04:02:51.520Z,19.57
2019-02-25T04:05:20.303Z,19.90
2019-02-25T04:07:49.504Z,19.43
2019-02-25T04:10:18.543Z,19.47
2019-02-25T04:12:47.570Z,21.10
2019-02-25T04:15:19.676Z,21.60
2019-02-25T04:17:48.779Z,21.90
2019-02-25T04:20:17.751Z,19.00
2019-02-25T04:22:46.494Z,19.83
2019-02-25T04:25:15.292Z,20.07
2019-02-25T04:27:43.935Z,19.77
2019-02-25T04:30:13.592Z,20.00
2019-02-25T04:32:42.392Z,20.60
2019-02-25T04:35:11.707Z,21.33
2019-02-25T04:37:40.462Z,19.37
2019-02-25T04:40:09.917Z,20.70
2019-02-25T04:42:39.265Z,21.03
2019-02-25T04:45:09.437Z,20.30
2019-02-25T04:47:38.505Z,21.80
2019-02-25T04:50:07.810Z,21.77
2019-02-25T04:52:36.603Z,22.90
2019-02-25T04:55:05.321Z,20.10
2019-02-25T04:57:34.054Z,20.77
2019-02-25T05:00:03.468Z,22.53
2019-02-25T05:02:32.210Z,26.63
2019-02-25T05:05:01.123Z,25.80
2019-02-25T05:07:30.160Z,24.53
2019-02-25T05:09:58.804Z,25.27
2019-02-25T05:12:28.012Z,24.13
2019-02-25T05:14:56.478Z,23.67
2019-02-25T05:17:25.285Z,23.50
2019-02-25T05:19:53.959Z,25.27
2019-02-25T05:22:22.817Z,23.50
2019-02-25T05:24:51.419Z,25.43
2019-02-25T05:27:20.102Z,23.87
2019-02-25T05:29:49.074Z,24.80
2019-02-25T05:32:17.750Z,24.47
2019-02-25T05:34:46.568Z,23.00
2019-02-25T05:37:15.563Z,22.80
2019-02-25T05:39:44.261Z,21.83
2019-02-25T05:42:13.059Z,21.90
2019-02-25T05:44:41.714Z,22.40
2019-02-25T05:47:10.531Z,21.07
2019-02-25T05:49:39.182Z,21.33
2019-02-25T05:52:08.011Z,21.67
2019-02-25T05:54:36.677Z,21.73
2019-02-25T05:57:05.837Z,19.97
2019-02-25T05:59:35.056Z,21.17
2019-02-25T06:02:05.432Z,20.50
2019-02-25T06:04:34.318Z,21.07
2019-02-25T06:07:03.207Z,22.20
2019-02-25T06:09:32.363Z,20.90
2019-02-25T06:12:01.219Z,20.20
2019-02-25T06:14:29.839Z,20.67
2019-02-25T06:16:58.487Z,22.27
2019-02-25T06:19:27.105Z,21.40
2019-02-25T06:21:56.322Z,22.20
2019-02-25T06:24:24.990Z,20.17
2019-02-25T06:26:53.999Z,21.40
2019-02-25T06:29:22.656Z,20.73
2019-02-25T06:31:51.283Z,19.87
2019-02-25T06:34:20.120Z,21.07
2019-02-25T06:36:49.159Z,20.80
2019-02-25T06:39:17.835Z,21.20
2019-02-25T06:41:46.222Z,21.43
2019-02-25T06:44:14.547Z,22.03
2019-02-25T06:46:43.309Z,23.77
2019-02-25T06:49:11.630Z,23.43
2019-02-25T06:51:40.365Z,22.77
2019-02-25T06:54:09.394Z,22.47
2019-02-25T06:56:38.050Z,24.00
2019-02-25T06:59:06.689Z,25.00
2019-02-25T07:01:35.791Z,25.57
2019-02-25T07:04:38.827Z,23.90
2019-02-25T07:07:19.975Z,23.43
2019-02-25T07:10:05.482Z,24.90
2019-02-25T07:12:50.014Z,23.93
2019-02-25T07:15:26.488Z,24.53
2019-02-25T07:18:29.077Z,24.63
2019-02-25T07:21:31.487Z,25.87
2019-02-25T07:24:10.886Z,26.37
2019-02-25T07:27:03.967Z,26.27
2019-02-25T07:29:54.279Z,25.90
2019-02-25T07:32:40.337Z,25.23
2019-02-25T07:35:33.888Z,25.93
2019-02-25T07:38:20.171Z,26.73
2019-02-25T07:41:16.688Z,26.57
2019-02-25T07:44:22.107Z,25.57
2019-02-25T07:47:09.424Z,26.80
2019-02-25T07:50:11.983Z,26.93
2019-02-25T07:52:54.639Z,26.27
2019-02-25T07:55:47.711Z,26.73
2019-02-25T07:58:21.819Z,27.27
2019-02-25T08:00:54.980Z,26.77
2019-02-25T08:03:48.310Z,27.50
2019-02-25T08:06:38.315Z,28.13
2019-02-25T08:09:26.782Z,27.43
2019-02-25T08:12:18.631Z,28.63
2019-02-25T08:15:04.811Z,26.43
2019-02-25T08:17:55.073Z,28.23
2019-02-25T08:20:57.306Z,28.73
2019-02-25T08:23:36.132Z,28.87
2019-02-25T08:26:33.524Z,30.70
2019-02-25T08:29:23.531Z,28.90
2019-02-25T08:32:16.923Z,30.23
2019-02-25T08:35:02.750Z,27.83
2019-02-25T08:38:16.879Z,28.87
2019-02-25T08:41:14.646Z,29.93
2019-02-25T08:43:51.975Z,29.40
2019-02-25T08:46:48.303Z,29.77
2019-02-25T08:49:26.254Z,31.10
2019-02-25T08:51:54.607Z,28.87
2019-02-25T08:54:22.942Z,30.73
2019-02-25T08:56:51.325Z,28.50
2019-02-25T08:59:19.759Z,31.13
2019-02-25T09:01:48.179Z,32.10
2019-02-25T09:04:16.517Z,31.13
2019-02-25T09:06:44.848Z,30.33
2019-02-25T09:09:13.290Z,30.90
2019-02-25T09:11:41.777Z,29.93
2019-02-25T09:14:10.134Z,30.90
2019-02-25T09:16:38.448Z,30.60
2019-02-25T09:19:06.885Z,31.60
2019-02-25T09:21:35.318Z,32.37
2019-02-25T09:24:03.734Z,32.00
2019-02-25T09:26:32.070Z,33.13
2019-02-25T09:29:00.537Z,32.50
2019-02-25T09:31:28.947Z,33.57
2019-02-25T09:33:57.499Z,32.23
2019-02-25T09:36:26.083Z,32.30
2019-02-25T09:38:56.557Z,31.43
2019-02-25T09:41:29.941Z,29.40
2019-02-25T09:43:54.708Z,31.40
2019-02-25T09:46:23.178Z,32.23
2019-02-25T09:48:51.517Z,30.13
2019-02-25T09:51:19.862Z,27.93
2019-02-25T09:53:48.198Z,27.07
2019-02-25T09:56:16.529Z,29.03
2019-02-25T09:58:44.865Z,28.63
2019-02-25T10:01:13.327Z,29.53
2019-02-25T10:03:41.651Z,28.70
2019-02-25T10:06:09.969Z,28.17
2019-02-25T10:08:38.283Z,28.33
2019-02-25T10:11:06.717Z,25.70
2019-02-25T10:13:35.120Z,27.00
2019-02-25T10:16:03.475Z,26.63
2019-02-25T10:18:31.826Z,25.03
2019-02-25T10:21:00.158Z,25.53
2019-02-25T10:23:28.492Z,25.93
2019-02-25T10:25:56.825Z,25.53
2019-02-25T10:28:25.138Z,27.97
2019-02-25T10:30:53.456Z,27.47
2019-02-25T10:33:21.813Z,27.03
2019-02-25T10:35:50.178Z,27.10
2019-02-25T10:38:19.552Z,26.67
2019-02-25T10:40:49.536Z,28.37
2019-02-25T10:43:18.575Z,27.23
2019-02-25T10:45:46.937Z,29.83
2019-02-25T10:48:17.277Z,27.13
2019-02-25T10:50:45.447Z,27.90
2019-02-25T10:53:15.606Z,27.23
2019-02-25T10:55:47.285Z,25.97
2019-02-25T10:58:16.496Z,27.33
2019-02-25T11:00:46.072Z,25.40
2019-02-25T11:03:15.309Z,24.77
2019-02-25T11:05:44.757Z,26.23
2019-02-25T11:08:15.524Z,24.87
2019-02-25T11:10:48.721Z,26.17
2019-02-25T11:13:17.820Z,26.70
2019-02-25T11:15:48.136Z,26.07
2019-02-25T11:18:19.183Z,26.43
2019-02-25T11:20:46.169Z,25.77
2019-02-25T11:23:15.516Z,25.67
2019-02-25T11:25:44.598Z,26.77
2019-02-25T11:28:24.808Z,24.67
2019-02-25T11:30:44.880Z,23.57
2019-02-25T11:33:13.040Z,23.50
2019-02-25T11:35:43.236Z,24.67
2019-02-25T11:38:11.588Z,24.93
2019-02-25T11:40:39.921Z,24.77
2019-02-25T11:43:10.131Z,24.77
2019-02-25T11:45:38.264Z,24.83
2019-02-25T11:48:06.766Z,24.97
2019-02-25T11:50:35.159Z,24.77
2019-02-25T11:53:03.546Z,24.60
2019-02-25T11:55:31.897Z,23.33
2019-02-25T11:58:00.275Z,23.43
2019-02-25T12:00:28.630Z,22.83
2019-02-25T12:02:57.115Z,21.53
2019-02-25T12:05:25.487Z,22.57
2019-02-25T12:07:53.937Z,21.80
2019-02-25T12:10:22.442Z,22.67
2019-02-25T12:12:50.916Z,23.10
2019-02-25T12:15:19.261Z,23.07
2019-02-25T12:17:47.733Z,22.93
2019-02-25T12:20:16.288Z,21.63
2019-02-25T12:22:44.786Z,21.97
2019-02-25T12:25:13.714Z,20.70
2019-02-25T12:27:42.043Z,20.37
2019-02-25T12:30:12.327Z,21.13
2019-02-25T12:32:40.695Z,20.50
2019-02-25T12:35:09.931Z,20.07
2019-02-25T12:37:38.375Z,20.10
2019-02-25T12:40:07.183Z,19.87
2019-02-25T12:42:35.811Z,20.07
2019-02-25T12:45:04.407Z,21.37
2019-02-25T12:47:32.753Z,20.23
2019-02-25T12:50:01.116Z,20.03
2019-02-25T12:52:29.453Z,21.20
2019-02-25T12:54:57.838Z,20.07
2019-02-25T12:57:26.257Z,20.77
2019-02-25T12:59:54.598Z,20.53
2019-02-25T13:02:22.935Z,20.43
2019-02-25T13:04:51.287Z,21.43
2019-02-25T13:07:19.635Z,21.20
2019-02-25T13:09:47.986Z,21.07
2019-02-25T13:12:16.350Z,20.77
2019-02-25T13:14:44.819Z,22.07
2019-02-25T13:17:13.187Z,21.10
2019-02-25T13:19:41.526Z,20.90
2019-02-25T13:22:09.905Z,20.70
2019-02-25T13:24:39.524Z,19.17
2019-02-25T13:27:09.120Z,18.97
2019-02-25T13:29:38.286Z,19.17
2019-02-25T13:32:06.645Z,19.93
2019-02-25T13:34:35.034Z,19.60
2019-02-25T13:37:03.886Z,19.87
2019-02-25T13:39:32.276Z,18.90
2019-02-25T13:42:00.603Z,18.27
2019-02-25T13:44:28.971Z,17.73
2019-02-25T13:46:57.333Z,16.83
2019-02-25T13:49:25.703Z,18.20
2019-02-25T13:51:54.144Z,17.13
2019-02-25T13:54:22.483Z,18.50
2019-02-25T13:56:51.218Z,19.20
2019-02-25T13:59:19.611Z,18.70
2019-02-25T14:01:48.080Z,18.70
2019-02-25T14:04:16.403Z,18.00
2019-02-25T14:06:44.730Z,18.83
2019-02-25T14:09:13.179Z,18.63
2019-02-25T14:11:41.544Z,19.23
2019-02-25T14:14:10.523Z,18.83
2019-02-25T14:16:38.965Z,18.73
2019-02-25T14:19:07.374Z,19.03
2019-02-25T14:21:36.474Z,19.30
2019-02-25T14:24:05.008Z,17.40
2019-02-25T14:26:33.343Z,17.50
2019-02-25T14:29:02.110Z,17.23
2019-02-25T14:31:30.474Z,17.87
2019-02-25T14:33:58.815Z,18.73
2019-02-25T14:36:28.323Z,16.43
2019-02-25T14:38:59.491Z,17.20
2019-02-25T14:41:27.004Z,17.97
2019-02-25T14:43:56.703Z,17.77
2019-02-25T14:46:26.825Z,16.80
2019-02-25T14:48:55.607Z,17.73
2019-02-25T14:51:23.978Z,17.33
2019-02-25T14:53:54.750Z,17.63
2019-02-25T14:56:22.299Z,17.60
2019-02-25T14:58:51.046Z,17.17
2019-02-25T15:01:20.994Z,16.53
2019-02-25T15:03:49.519Z,17.50
2019-02-25T15:06:18.065Z,18.03
2019-02-25T15:08:46.472Z,17.23
2019-02-25T15:11:14.962Z,18.20
2019-02-25T15:13:43.914Z,17.90
2019-02-25T15:16:12.292Z,18.60
2019-02-25T15:18:40.772Z,17.30
2019-02-25T15:21:11.159Z,17.57
2019-02-25T15:23:39.480Z,16.73
2019-02-25T15:26:07.969Z,17.77
2019-02-25T15:28:36.811Z,17.07
2019-02-25T15:31:06.963Z,17.67
2019-02-25T15:33:36.258Z,18.03
2019-02-25T15:36:05.914Z,16.87
2019-02-25T15:38:34.898Z,15.70
2019-02-25T15:41:06.677Z,17.60
2019-02-25T15:43:34.637Z,16.67
2019-02-25T15:46:03.104Z,16.67
2019-02-25T15:48:32.851Z,16.57
2019-02-25T15:51:01.550Z,15.77
2019-02-25T15:53:30.112Z,16.43
2019-02-25T15:56:01.109Z,15.87
2019-02-25T15:58:28.833Z,16.50
2019-02-25T16:00:57.159Z,15.43
2019-02-25T16:03:25.927Z,16.10
2019-02-25T16:05:57.182Z,15.07
2019-02-25T16:08:26.034Z,15.43
2019-02-25T16:10:55.786Z,16.17
2019-02-25T16:13:24.567Z,16.10
2019-02-25T16:15:52.947Z,14.60
2019-02-25T16:18:22.118Z,14.47
2019-02-25T16:20:50.485Z,15.23
2019-02-25T16:23:20.133Z,13.57
2019-02-25T16:25:50.531Z,13.57
2019-02-25T16:28:18.891Z,15.13
2019-02-25T16:30:48.678Z,13.77
2019-02-25T16:33:17.235Z,13.93
2019-02-25T16:35:46.256Z,14.10
2019-02-25T16:38:14.970Z,13.70
2019-02-25T16:40:43.427Z,13.97
2019-02-25T16:43:12.633Z,13.53
2019-02-25T16:45:43.939Z,12.83
2019-02-25T16:48:11.798Z,16.10
2019-02-25T16:50:43.732Z,15.17
2019-02-25T16:53:14.841Z,14.70
2019-02-25T16:55:42.770Z,15.07
2019-02-25T16:58:13.339Z,14.90
2019-02-25T17:00:41.894Z,17.03
2019-02-25T17:03:11.162Z,16.20
2019-02-25T17:05:42.861Z,15.83
2019-02-25T17:08:12.866Z,16.53
2019-02-25T17:10:41.290Z,17.30
2019-02-25T17:13:10.427Z,16.77
2019-02-25T17:15:39.798Z,17.47
2019-02-25T17:18:08.814Z,17.03
2019-02-25T17:20:37.202Z,17.60
2019-02-25T17:23:09.489Z,17.83
2019-02-25T17:25:36.221Z,17.73
2019-02-25T17:28:07.615Z,16.73
2019-02-25T17:30:35.860Z,16.33
2019-02-25T17:33:09.987Z,17.00
2019-02-25T17:35:39.099Z,15.97
2019-02-25T17:38:07.456Z,18.03
2019-02-25T17:40:35.810Z,16.00
2019-02-25T17:43:04.143Z,16.60
2019-02-25T17:45:34.388Z,17.10
2019-02-25T17:48:05.439Z,17.63
2019-02-25T17:50:34.825Z,15.90
2019-02-25T17:53:03.021Z,17.70
2019-02-25T17:55:33.879Z,16.73
2019-02-25T17:58:02.158Z,18.17
2019-02-25T18:00:41.731Z,18.17
2019-02-25T18:03:09.099Z,16.67
2019-02-25T18:05:40.068Z,20.57
2019-02-25T18:08:10.600Z,18.27
2019-02-25T18:10:38.883Z,17.80
2019-02-25T18:13:08.663Z,18.37
2019-02-25T18:15:37.331Z,19.30
2019-02-25T18:18:09.196Z,18.50
2019-02-25T18:20:36.626Z,18.13
2019-02-25T18:23:06.126Z,19.30
2019-02-25T18:25:34.666Z,18.63
2019-02-25T18:28:04.444Z,19.13
2019-02-25T18:30:33.931Z,18.63
2019-02-25T18:33:05.089Z,18.33
2019-02-25T18:35:34.542Z,18.60
2019-02-25T18:38:04.679Z,19.27
2019-02-25T18:40:33.470Z,18.37
2019-02-25T18:43:04.374Z,19.17
2019-02-25T18:45:33.377Z,18.00
2019-02-25T18:48:03.398Z,20.17
2019-02-25T18:50:32.460Z,18.70
2019-02-25T18:53:01.492Z,19.93
2019-02-25T18:55:32.093Z,20.70
2019-02-25T18:58:01.047Z,20.47
2019-02-25T19:00:34.352Z,19.20
2019-02-25T19:03:04.806Z,19.80
2019-02-25T19:05:34.066Z,19.73
2019-02-25T19:08:03.436Z,19.70
2019-02-25T19:10:32.252Z,20.47
2019-02-25T19:13:01.205Z,21.17
2019-02-25T19:15:30.011Z,20.57
2019-02-25T19:17:59.139Z,20.33
2019-02-25T19:20:28.212Z,20.60
2019-02-25T19:23:00.510Z,20.20
2019-02-25T19:25:27.978Z,20.83
2019-02-25T19:27:58.606Z,21.00
2019-02-25T19:30:27.872Z,21.43
2019-02-25T19:32:57.896Z,21.93
2019-02-25T19:35:28.681Z,20.90
2019-02-25T19:37:57.307Z,21.70
2019-02-25T19:40:28.200Z,21.23
2019-02-25T19:42:58.806Z,21.07
2019-02-25T19:45:27.948Z,20.73
2019-02-25T19:47:58.324Z,21.43
2019-02-25T19:50:29.575Z,23.37
2019-02-25T19:53:02.481Z,21.53
2019-02-25T19:55:29.776Z,20.23
2019-02-25T19:57:59.379Z,20.27
2019-02-25T20:00:30.590Z,22.23
2019-02-25T20:03:05.531Z,21.23
2019-02-25T20:05:30.514Z,20.17
2019-02-25T20:07:59.951Z,20.20
2019-02-25T20:10:30.666Z,19.80
2019-02-25T20:13:00.682Z,20.73
2019-02-25T20:15:30.083Z,20.50
2019-02-25T20:17:59.748Z,20.93
2019-02-25T20:20:36.090Z,20.87
2019-02-25T20:23:06.170Z,21.27
2019-02-25T20:25:36.286Z,20.57
2019-02-25T20:28:05.618Z,20.30
2019-02-25T20:30:34.977Z,20.57
2019-02-25T20:33:06.336Z,20.57
2019-02-25T20:35:34.687Z,21.63
2019-02-25T20:38:05.166Z,21.23
2019-02-25T20:40:35.045Z,22.80
2019-02-25T20:43:04.746Z,22.67
2019-02-25T20:45:35.428Z,23.17
2019-02-25T20:48:05.528Z,23.83
2019-02-25T20:50:35.135Z,22.63
2019-02-25T20:53:06.448Z,22.10
2019-02-25T20:55:36.370Z,23.87
2019-02-25T20:58:06.195Z,23.30
2019-02-25T21:00:39.043Z,22.13
2019-02-25T21:03:06.353Z,23.43
2019-02-25T21:05:35.866Z,22.57
2019-02-25T21:08:05.115Z,23.70
2019-02-25T21:10:35.642Z,23.83
2019-02-25T21:13:05.410Z,21.97
2019-02-25T21:15:36.396Z,23.67
2019-02-25T21:18:07.650Z,22.37
2019-02-25T21:20:36.075Z,21.80
2019-02-25T21:23:07.342Z,23.37
2019-02-25T21:25:38.504Z,23.40
2019-02-25T21:28:08.828Z,22.60
2019-02-25T21:30:40.965Z,21.67
2019-02-25T21:33:07.719Z,21.97
2019-02-25T21:35:38.031Z,23.67
2019-02-25T21:38:06.922Z,23.47
2019-02-25T21:40:35.744Z,22.37
2019-02-25T21:43:04.556Z,21.33
2019-02-25T21:45:33.392Z,21.77
2019-02-25T21:48:04.961Z,22.63
2019-02-25T21:50:34.015Z,22.77
2019-02-25T21:53:04.921Z,21.13
2019-02-25T21:55:34.942Z,22.93
2019-02-25T21:58:04.892Z,21.50
2019-02-25T22:00:35.797Z,22.63
2019-02-25T22:03:08.226Z,22.40
2019-02-25T22:05:35.463Z,21.17
2019-02-25T22:08:04.641Z,21.73
2019-02-25T22:10:36.330Z,22.33
2019-02-25T22:13:06.746Z,21.93
2019-02-25T22:15:34.535Z,21.70
2019-02-25T22:18:06.087Z,23.10
2019-02-25T22:20:37.653Z,22.00
2019-02-25T22:23:05.769Z,22.80
2019-02-25T22:25:35.200Z,22.97
2019-02-25T22:28:05.363Z,23.40
2019-02-25T22:30:34.774Z,23.57
2019-02-25T22:33:04.890Z,24.33
2019-02-25T22:35:37.395Z,24.90
2019-02-25T22:38:05.430Z,23.67
2019-02-25T22:40:36.615Z,23.43
2019-02-25T22:43:05.222Z,24.03
2019-02-25T22:45:35.945Z,23.60
2019-02-25T22:48:05.242Z,22.37
2019-02-25T22:50:35.664Z,22.60
2019-02-25T22:53:06.177Z,22.07
2019-02-25T22:55:39.236Z,22.53
2019-02-25T22:58:06.624Z,22.30
2019-02-25T23:01:02.438Z,22.23
2019-02-25T23:03:31.074Z,21.70
2019-02-25T23:06:00.498Z,22.87
2019-02-25T23:08:29.831Z,23.27
2019-02-25T23:10:58.610Z,21.83
2019-02-25T23:13:29.322Z,23.37
2019-02-25T23:15:57.630Z,23.93
2019-02-25T23:18:28.051Z,22.17
2019-02-25T23:20:59.765Z,24.83
2019-02-25T23:23:28.694Z,24.67
2019-02-25T23:25:58.442Z,24.17
2019-02-25T23:28:28.645Z,24.90
2019-02-25T23:30:58.659Z,26.63
2019-02-25T23:33:27.711Z,24.70
2019-02-25T23:35:56.726Z,23.33
2019-02-25T23:38:25.379Z,24.23
2019-02-25T23:40:54.017Z,22.93
2019-02-25T23:43:22.646Z,23.30
2019-02-25T23:45:51.478Z,23.67
2019-02-25T23:48:20.131Z,24.73
2019-02-25T23:50:50.309Z,25.97
2019-02-25T23:53:18.970Z,24.63
2019-02-25T23:55:49.470Z,23.43
2019-02-25T23:58:19.629Z,23.90
